createdAt,value
2018-06-09T00:00:55.651Z,84.70
2018-06-09T00:03:24.145Z,84.40
2018-06-09T00:05:52.601Z,83.60
2018-06-09T00:08:21.020Z,83.60
2018-06-09T00:10:49.475Z,83.60
2018-06-09T00:13:18.157Z,83.80
2018-06-09T00:15:46.744Z,83.70
2018-06-09T00:18:15.192Z,83.70
2018-06-09T00:20:43.661Z,83.20
2018-06-09T00:23:12.178Z,83.30
2018-06-09T00:25:40.689Z,83.20
2018-06-09T00:28:09.309Z,83.00
2018-06-09T00:30:38.591Z,83.10
2018-06-09T00:33:07.249Z,83.30
2018-06-09T00:35:35.830Z,83.70
2018-06-09T00:38:04.220Z,83.30
2018-06-09T00:40:32.644Z,83.60
2018-06-09T00:43:01.151Z,83.20
2018-06-09T00:45:29.728Z,83.20
2018-06-09T00:47:58.125Z,83.10
2018-06-09T00:50:26.550Z,83.00
2018-06-09T00:52:54.954Z,82.30
2018-06-09T00:55:23.342Z,82.60
2018-06-09T00:57:51.706Z,82.50
2018-06-09T01:00:20.194Z,82.60
2018-06-09T01:02:48.646Z,83.00
2018-06-09T01:05:17.077Z,83.20
2018-06-09T01:07:45.482Z,82.90
2018-06-09T01:10:13.912Z,82.90
2018-06-09T01:12:42.262Z,83.30
2018-06-09T01:15:10.647Z,82.90
2018-06-09T01:17:39.017Z,82.70
2018-06-09T01:20:07.396Z,82.60
2018-06-09T01:22:35.752Z,83.00
2018-06-09T01:25:04.189Z,82.80
2018-06-09T01:27:32.668Z,82.40
2018-06-09T01:30:01.052Z,82.70
2018-06-09T01:32:29.430Z,83.00
2018-06-09T01:34:57.846Z,82.80
2018-06-09T01:37:26.281Z,82.80
2018-06-09T01:39:54.669Z,82.70
2018-06-09T01:42:23.118Z,82.50
2018-06-09T01:44:51.481Z,82.30
2018-06-09T01:47:20.022Z,82.20
2018-06-09T01:49:48.436Z,82.00
2018-06-09T01:52:16.911Z,81.50
2018-06-09T01:54:45.379Z,81.70
2018-06-09T01:57:13.754Z,81.60
2018-06-09T01:59:42.142Z,81.80
2018-06-09T02:04:38.669Z,81.00
2018-06-09T02:07:07.113Z,81.20
2018-06-09T02:09:35.498Z,81.20
2018-06-09T02:12:04.000Z,81.50
2018-06-09T02:14:32.439Z,81.50
2018-06-09T02:17:00.961Z,81.80
2018-06-09T02:19:29.292Z,82.00
2018-06-09T02:21:57.710Z,81.90
2018-06-09T02:24:26.058Z,81.40
2018-06-09T02:26:54.534Z,81.20
2018-06-09T02:29:22.930Z,81.20
2018-06-09T02:31:51.302Z,81.60
2018-06-09T02:34:19.662Z,81.40
2018-06-09T02:36:48.054Z,81.70
2018-06-09T02:39:16.422Z,81.80
2018-06-09T02:41:44.790Z,81.70
2018-06-09T02:44:13.239Z,81.80
2018-06-09T02:46:41.653Z,82.00
2018-06-09T02:49:11.070Z,82.30
2018-06-09T02:51:39.448Z,82.20
2018-06-09T02:54:07.841Z,82.40
2018-06-09T02:56:36.248Z,82.20
2018-06-09T02:59:04.591Z,82.10
2018-06-09T03:01:32.959Z,81.80
2018-06-09T03:04:01.326Z,81.50
2018-06-09T03:06:29.713Z,81.60
2018-06-09T03:08:58.134Z,81.60
2018-06-09T03:11:26.658Z,81.40
2018-06-09T03:13:55.098Z,81.40
2018-06-09T03:16:23.441Z,81.40
2018-06-09T03:18:51.818Z,81.20
2018-06-09T03:21:20.277Z,81.00
2018-06-09T03:23:48.766Z,80.60
2018-06-09T03:26:17.157Z,80.40
2018-06-09T03:28:45.530Z,80.70
2018-06-09T03:31:13.898Z,80.90
2018-06-09T03:33:42.293Z,81.00
2018-06-09T03:36:10.656Z,80.50
2018-06-09T03:38:39.125Z,80.20
2018-06-09T03:41:07.481Z,80.50
2018-06-09T03:43:35.889Z,80.40
2018-06-09T03:46:04.381Z,80.60
2018-06-09T03:48:32.965Z,80.60
2018-06-09T03:51:01.459Z,80.30
2018-06-09T03:53:29.884Z,80.10
2018-06-09T03:55:58.290Z,80.40
2018-06-09T03:58:26.975Z,80.60
2018-06-09T04:00:55.370Z,79.70
2018-06-09T04:03:23.882Z,79.60
2018-06-09T04:05:52.233Z,79.80
2018-06-09T04:08:20.603Z,80.70
2018-06-09T04:10:48.982Z,80.30
2018-06-09T04:13:17.469Z,80.20
2018-06-09T04:15:45.888Z,80.40
2018-06-09T04:18:14.259Z,80.60
2018-06-09T04:20:42.696Z,80.60
2018-06-09T04:23:11.077Z,80.30
2018-06-09T04:25:39.537Z,80.50
2018-06-09T04:28:07.893Z,80.50
2018-06-09T04:30:36.367Z,80.40
2018-06-09T04:33:04.855Z,81.30
2018-06-09T04:35:33.258Z,80.40
2018-06-09T04:38:01.652Z,80.50
2018-06-09T04:40:30.122Z,80.90
2018-06-09T04:42:58.621Z,81.40
2018-06-09T04:45:27.006Z,81.20
2018-06-09T04:47:55.554Z,81.20
2018-06-09T04:50:24.039Z,80.70
2018-06-09T04:52:52.446Z,80.90
2018-06-09T04:55:20.883Z,80.50
2018-06-09T04:57:49.255Z,80.30
2018-06-09T05:00:17.625Z,80.00
2018-06-09T05:02:48.881Z,80.10
2018-06-09T05:05:17.291Z,80.20
2018-06-09T05:07:45.680Z,80.20
2018-06-09T05:10:14.269Z,80.30
2018-06-09T05:12:42.821Z,80.30
2018-06-09T05:15:11.217Z,80.60
2018-06-09T05:17:39.613Z,80.70
2018-06-09T05:20:07.986Z,81.00
2018-06-09T05:22:36.400Z,80.50
2018-06-09T05:25:04.805Z,80.70
2018-06-09T05:27:33.197Z,80.50
2018-06-09T05:30:01.578Z,80.20
2018-06-09T05:32:29.942Z,80.40
2018-06-09T05:34:58.426Z,80.10
2018-06-09T05:37:26.849Z,80.60
2018-06-09T05:39:55.326Z,80.50
2018-06-09T05:42:23.736Z,80.80
2018-06-09T05:44:52.118Z,81.00
2018-06-09T05:47:20.719Z,80.20
2018-06-09T05:49:49.206Z,80.50
2018-06-09T05:52:17.685Z,80.80
2018-06-09T05:54:46.193Z,80.40
2018-06-09T05:57:14.648Z,80.20
2018-06-09T05:59:43.163Z,79.90
2018-06-09T06:02:11.507Z,80.40
2018-06-09T06:04:39.986Z,80.00
2018-06-09T06:07:08.394Z,79.90
2018-06-09T06:09:36.735Z,79.80
2018-06-09T06:12:05.126Z,80.60
2018-06-09T06:14:33.534Z,79.60
2018-06-09T06:17:02.371Z,79.80
2018-06-09T06:19:30.706Z,80.00
2018-06-09T06:21:59.204Z,80.00
2018-06-09T06:24:27.645Z,80.00
2018-06-09T06:26:56.235Z,79.80
2018-06-09T06:29:24.626Z,79.70
2018-06-09T06:31:53.093Z,79.90
2018-06-09T06:34:21.433Z,79.70
2018-06-09T06:36:50.026Z,80.00
2018-06-09T06:39:18.406Z,79.00
2018-06-09T06:41:47.006Z,78.80
2018-06-09T06:44:15.575Z,78.00
2018-06-09T06:46:43.939Z,77.90
2018-06-09T06:49:12.457Z,77.70
2018-06-09T06:51:40.846Z,77.50
2018-06-09T06:54:09.403Z,77.00
2018-06-09T06:56:37.840Z,77.20
2018-06-09T06:59:06.208Z,76.90
2018-06-09T07:01:34.636Z,76.70
2018-06-09T07:04:03.041Z,76.50
2018-06-09T07:06:31.853Z,76.90
2018-06-09T07:09:00.332Z,78.10
2018-06-09T07:11:28.853Z,77.40
2018-06-09T07:13:57.321Z,77.60
2018-06-09T07:16:25.732Z,77.20
2018-06-09T07:18:54.111Z,76.40
2018-06-09T07:21:22.746Z,76.80
2018-06-09T07:23:51.399Z,77.30
2018-06-09T07:26:19.774Z,77.20
2018-06-09T07:28:48.258Z,76.50
2018-06-09T07:31:16.892Z,76.60
2018-06-09T07:33:45.347Z,76.70
2018-06-09T07:36:13.974Z,76.60
2018-06-09T07:38:42.449Z,76.50
2018-06-09T07:41:10.848Z,75.30
2018-06-09T07:43:39.233Z,75.90
2018-06-09T07:46:07.725Z,76.20
2018-06-09T07:48:36.509Z,76.80
2018-06-09T07:51:05.579Z,76.70
2018-06-09T07:53:34.736Z,76.60
2018-06-09T07:56:03.275Z,76.30
2018-06-09T07:58:31.650Z,75.50
2018-06-09T08:01:00.080Z,74.70
2018-06-09T08:03:28.537Z,74.10
2018-06-09T08:05:56.991Z,74.80
2018-06-09T08:08:25.488Z,74.90
2018-06-09T08:10:53.962Z,74.10
2018-06-09T08:13:22.441Z,73.90
2018-06-09T08:15:51.030Z,73.60
2018-06-09T08:18:19.407Z,73.70
2018-06-09T08:20:47.824Z,74.30
2018-06-09T08:23:16.285Z,73.70
2018-06-09T08:25:44.741Z,73.20
2018-06-09T08:28:13.224Z,73.90
2018-06-09T08:30:41.664Z,75.20
2018-06-09T08:33:10.190Z,75.00
2018-06-09T08:35:38.790Z,74.30
2018-06-09T08:38:07.187Z,73.90
2018-06-09T08:40:35.605Z,73.90
2018-06-09T08:43:04.003Z,73.60
2018-06-09T08:45:32.550Z,72.90
2018-06-09T08:48:01.162Z,73.30
2018-06-09T08:50:29.916Z,72.60
2018-06-09T08:52:58.448Z,74.70
2018-06-09T08:55:26.899Z,71.60
2018-06-09T08:57:55.501Z,70.40
2018-06-09T09:00:24.027Z,70.90
2018-06-09T09:02:52.972Z,71.30
2018-06-09T09:05:21.580Z,71.00
2018-06-09T09:07:50.014Z,71.40
2018-06-09T09:10:18.525Z,72.70
2018-06-09T09:12:46.911Z,74.20
2018-06-09T09:15:15.257Z,74.90
2018-06-09T09:17:43.922Z,72.80
2018-06-09T09:20:12.315Z,72.40
2018-06-09T09:22:40.736Z,72.90
2018-06-09T09:25:09.319Z,74.20
2018-06-09T09:27:37.800Z,72.40
2018-06-09T09:30:06.315Z,72.00
2018-06-09T09:32:34.814Z,72.00
2018-06-09T09:35:03.304Z,71.80
2018-06-09T09:37:31.830Z,71.20
2018-06-09T09:40:00.405Z,71.10
2018-06-09T09:42:28.807Z,72.50
2018-06-09T09:44:57.295Z,73.00
2018-06-09T09:47:25.854Z,73.70
2018-06-09T09:49:54.583Z,73.20
2018-06-09T09:52:22.986Z,73.50
2018-06-09T09:54:51.573Z,72.90
2018-06-09T09:57:20.004Z,72.60
2018-06-09T09:59:48.578Z,74.20
2018-06-09T10:02:17.080Z,73.10
2018-06-09T10:04:45.695Z,73.60
2018-06-09T10:07:14.074Z,74.40
2018-06-09T10:09:42.497Z,73.80
2018-06-09T10:12:10.914Z,73.60
2018-06-09T10:14:39.381Z,73.20
2018-06-09T10:17:07.932Z,73.30
2018-06-09T10:19:36.478Z,72.60
2018-06-09T10:22:05.025Z,71.10
2018-06-09T10:24:33.447Z,71.80
2018-06-09T10:27:01.875Z,71.20
2018-06-09T10:29:30.225Z,72.80
2018-06-09T10:31:58.826Z,72.50
2018-06-09T10:34:27.174Z,71.60
2018-06-09T10:36:55.907Z,71.60
2018-06-09T10:39:24.371Z,71.30
2018-06-09T10:41:52.894Z,70.30
2018-06-09T10:44:21.358Z,70.80
2018-06-09T10:46:49.912Z,70.40
2018-06-09T10:49:24.890Z,70.30
2018-06-09T10:51:53.326Z,68.70
2018-06-09T10:54:21.840Z,67.40
2018-06-09T10:56:50.233Z,68.80
2018-06-09T10:59:18.638Z,68.00
2018-06-09T11:01:47.146Z,67.70
2018-06-09T11:04:15.598Z,67.20
2018-06-09T11:06:43.290Z,68.80
2018-06-09T11:09:10.914Z,66.50
2018-06-09T11:11:38.557Z,65.10
2018-06-09T11:14:06.208Z,64.80
2018-06-09T11:16:33.814Z,65.50
2018-06-09T11:19:02.571Z,65.80
2018-06-09T11:21:30.380Z,65.70
2018-06-09T11:23:58.156Z,67.10
2018-06-09T11:26:25.866Z,65.30
2018-06-09T11:28:53.601Z,66.00
2018-06-09T11:31:21.373Z,63.50
2018-06-09T11:33:49.150Z,64.40
2018-06-09T11:36:16.837Z,63.00
2018-06-09T11:38:44.504Z,63.30
2018-06-09T11:41:12.206Z,64.00
2018-06-09T11:43:39.944Z,63.60
2018-06-09T11:46:07.625Z,63.10
2018-06-09T11:48:35.278Z,63.90
2018-06-09T11:51:03.071Z,65.00
2018-06-09T11:53:30.724Z,64.10
2018-06-09T11:55:58.568Z,64.20
2018-06-09T11:58:26.312Z,64.40
2018-06-09T12:00:53.954Z,62.80
2018-06-09T12:03:21.560Z,62.70
2018-06-09T12:05:49.550Z,61.50
2018-06-09T12:08:17.205Z,60.30
2018-06-09T12:10:44.864Z,61.40
2018-06-09T12:13:12.520Z,60.20
2018-06-09T12:15:40.169Z,60.10
2018-06-09T12:18:07.942Z,60.70
2018-06-09T12:20:35.699Z,61.40
2018-06-09T12:23:03.391Z,59.80
2018-06-09T12:25:31.237Z,59.10
2018-06-09T12:27:59.007Z,59.30
2018-06-09T12:30:26.778Z,58.80
2018-06-09T12:32:54.487Z,58.60
2018-06-09T12:35:22.215Z,58.50
2018-06-09T12:37:50.835Z,57.10
2018-06-09T12:40:19.417Z,56.70
2018-06-09T12:42:48.005Z,57.50
2018-06-09T12:45:16.460Z,58.40
2018-06-09T12:47:45.019Z,58.10
2018-06-09T12:50:13.633Z,56.80
2018-06-09T12:52:42.141Z,55.60
2018-06-09T12:55:10.697Z,55.10
2018-06-09T12:57:39.287Z,55.80
2018-06-09T13:00:07.689Z,55.40
2018-06-09T13:02:36.228Z,54.70
2018-06-09T13:05:04.936Z,54.80
2018-06-09T13:07:33.329Z,54.70
2018-06-09T13:10:02.129Z,53.60
2018-06-09T13:12:31.435Z,53.90
2018-06-09T13:15:00.012Z,54.70
2018-06-09T13:17:28.459Z,56.00
2018-06-09T13:19:57.067Z,55.60
2018-06-09T13:22:25.515Z,56.30
2018-06-09T13:24:54.062Z,56.00
2018-06-09T13:27:22.414Z,56.20
2018-06-09T13:29:50.882Z,56.80
2018-06-09T13:32:19.293Z,57.50
2018-06-09T13:34:47.695Z,57.60
2018-06-09T13:37:16.256Z,58.20
2018-06-09T13:39:44.907Z,58.50
2018-06-09T13:42:13.366Z,58.30
2018-06-09T13:44:41.856Z,58.40
2018-06-09T13:47:10.419Z,58.20
2018-06-09T13:49:38.799Z,58.80
2018-06-09T13:52:07.221Z,58.40
2018-06-09T13:54:35.628Z,58.60
2018-06-09T13:57:04.418Z,59.40
2018-06-09T13:59:32.927Z,59.50
2018-06-09T14:02:01.443Z,60.00
2018-06-09T14:04:29.802Z,61.20
2018-06-09T14:06:58.342Z,60.30
2018-06-09T14:09:26.787Z,60.30
2018-06-09T14:11:55.299Z,61.20
2018-06-09T14:14:23.665Z,61.80
2018-06-09T14:16:52.175Z,61.30
2018-06-09T14:19:20.518Z,61.40
2018-06-09T14:21:49.049Z,61.80
2018-06-09T14:24:17.502Z,61.20
2018-06-09T14:26:46.138Z,62.00
2018-06-09T14:29:14.573Z,62.40
2018-06-09T14:31:43.141Z,62.80
2018-06-09T14:34:11.775Z,63.30
2018-06-09T14:36:40.330Z,63.50
2018-06-09T14:39:08.745Z,63.70
2018-06-09T14:41:37.258Z,64.10
2018-06-09T14:44:05.829Z,65.60
2018-06-09T14:46:34.266Z,64.90
2018-06-09T14:49:02.763Z,65.20
2018-06-09T14:51:31.693Z,63.70
2018-06-09T14:54:00.674Z,63.20
2018-06-09T14:56:29.592Z,62.90
2018-06-09T14:58:58.696Z,63.70
2018-06-09T15:01:27.605Z,63.70
2018-06-09T15:03:56.060Z,63.60
2018-06-09T15:06:24.703Z,63.70
2018-06-09T15:08:53.157Z,63.00
2018-06-09T15:11:21.739Z,63.00
2018-06-09T15:13:50.255Z,63.00
2018-06-09T15:16:18.956Z,63.00
2018-06-09T15:18:47.402Z,63.50
2018-06-09T15:21:15.934Z,63.60
2018-06-09T15:23:44.391Z,64.20
2018-06-09T15:26:12.803Z,64.20
2018-06-09T15:28:41.379Z,64.40
2018-06-09T15:31:09.810Z,64.50
2018-06-09T15:33:38.235Z,64.20
2018-06-09T15:36:06.760Z,64.10
2018-06-09T15:38:36.050Z,65.00
2018-06-09T15:41:04.508Z,64.80
2018-06-09T15:43:33.029Z,64.80
2018-06-09T15:46:01.483Z,64.70
2018-06-09T15:48:30.035Z,64.90
2018-06-09T15:50:58.652Z,65.00
2018-06-09T15:53:27.132Z,64.80
2018-06-09T15:55:55.646Z,65.10
2018-06-09T15:58:24.166Z,64.90
2018-06-09T16:00:52.602Z,65.20
2018-06-09T16:03:21.145Z,65.00
2018-06-09T16:05:49.612Z,65.10
2018-06-09T16:08:18.080Z,65.50
2018-06-09T16:10:46.587Z,66.50
2018-06-09T16:13:15.057Z,65.70
2018-06-09T16:15:43.610Z,66.20
2018-06-09T16:18:12.060Z,66.70
2018-06-09T16:20:40.466Z,66.90
2018-06-09T16:23:08.937Z,67.40
2018-06-09T16:25:37.435Z,67.50
2018-06-09T16:28:05.844Z,67.70
2018-06-09T16:30:34.257Z,67.90
2018-06-09T16:33:02.807Z,68.30
2018-06-09T16:35:32.293Z,67.80
2018-06-09T16:38:00.712Z,68.10
2018-06-09T16:40:29.582Z,68.00
2018-06-09T16:42:58.027Z,69.90
2018-06-09T16:45:26.825Z,69.90
2018-06-09T16:47:55.314Z,69.40
2018-06-09T16:50:23.868Z,68.50
2018-06-09T16:52:52.290Z,68.30
2018-06-09T16:55:20.868Z,68.30
2018-06-09T16:57:49.295Z,68.60
2018-06-09T17:00:17.809Z,68.80
2018-06-09T17:02:46.473Z,69.20
2018-06-09T17:05:15.018Z,69.70
2018-06-09T17:07:43.438Z,70.40
2018-06-09T17:10:11.857Z,70.70
2018-06-09T17:12:40.243Z,70.80
2018-06-09T17:15:08.727Z,70.90
2018-06-09T17:17:37.314Z,71.10
2018-06-09T17:22:33.966Z,70.80
2018-06-09T17:25:02.558Z,71.70
2018-06-09T17:27:31.024Z,72.30
2018-06-09T17:29:59.551Z,72.80
2018-06-09T17:32:28.042Z,74.00
2018-06-09T17:34:56.511Z,73.50
2018-06-09T17:37:24.980Z,73.80
2018-06-09T17:39:53.421Z,73.90
2018-06-09T17:42:21.867Z,73.80
2018-06-09T17:44:50.304Z,73.90
2018-06-09T17:47:18.738Z,74.20
2018-06-09T17:49:47.287Z,74.60
2018-06-09T17:52:15.771Z,74.70
2018-06-09T17:54:44.192Z,74.80
2018-06-09T17:57:12.753Z,74.30
2018-06-09T17:59:41.154Z,74.40
2018-06-09T18:02:09.705Z,71.70
2018-06-09T18:04:39.541Z,69.50
2018-06-09T18:07:08.299Z,68.00
2018-06-09T18:09:36.814Z,64.90
2018-06-09T18:12:05.210Z,64.60
2018-06-09T18:14:33.689Z,66.20
2018-06-09T18:17:02.290Z,66.80
2018-06-09T18:19:30.998Z,67.00
2018-06-09T18:21:59.508Z,67.50
2018-06-09T18:24:28.286Z,68.50
2018-06-09T18:26:57.075Z,68.00
2018-06-09T18:29:25.589Z,67.90
2018-06-09T18:31:55.197Z,67.90
2018-06-09T18:34:23.639Z,71.00
2018-06-09T18:36:52.255Z,72.70
2018-06-09T18:39:20.721Z,72.90
2018-06-09T18:41:49.189Z,71.80
2018-06-09T18:44:17.809Z,71.10
2018-06-09T18:46:46.319Z,69.90
2018-06-09T18:49:15.186Z,70.00
2018-06-09T18:51:43.882Z,70.60
2018-06-09T18:54:12.326Z,73.50
2018-06-09T18:56:40.846Z,73.80
2018-06-09T18:59:09.643Z,73.50
2018-06-09T19:01:38.260Z,71.60
2018-06-09T19:04:06.684Z,70.80
2018-06-09T19:06:35.197Z,71.10
2018-06-09T19:09:06.117Z,71.00
2018-06-09T19:11:34.740Z,71.60
2018-06-09T19:14:03.524Z,71.00
2018-06-09T19:16:32.249Z,71.80
2018-06-09T19:19:00.944Z,72.20
2018-06-09T19:21:29.363Z,72.10
2018-06-09T19:23:57.910Z,72.40
2018-06-09T19:26:26.419Z,72.90
2018-06-09T19:28:54.813Z,72.60
2018-06-09T19:31:23.264Z,72.60
2018-06-09T19:33:51.780Z,72.80
2018-06-09T19:36:20.241Z,73.00
2018-06-09T19:38:48.665Z,73.10
2018-06-09T19:41:17.096Z,73.50
2018-06-09T19:43:45.835Z,73.70
2018-06-09T19:46:14.472Z,73.80
2018-06-09T19:48:43.110Z,75.80
2018-06-09T19:51:11.503Z,75.40
2018-06-09T19:53:39.977Z,75.60
2018-06-09T19:56:08.550Z,75.90
2018-06-09T19:58:36.999Z,75.90
2018-06-09T20:01:05.489Z,76.70
2018-06-09T20:03:34.062Z,76.70
2018-06-09T20:06:02.606Z,76.40
2018-06-09T20:08:31.136Z,77.30
2018-06-09T20:10:59.574Z,78.20
2018-06-09T20:13:28.153Z,78.80
2018-06-09T20:15:56.583Z,78.90
2018-06-09T20:18:31.663Z,78.10
2018-06-09T20:21:00.107Z,78.40
2018-06-09T20:23:28.660Z,78.60
2018-06-09T20:25:57.125Z,78.80
2018-06-09T20:28:25.691Z,77.70
2018-06-09T20:30:54.216Z,77.30
2018-06-09T20:33:22.849Z,77.40
2018-06-09T20:35:51.486Z,76.70
2018-06-09T20:38:20.027Z,76.20
2018-06-09T20:40:48.718Z,76.40
2018-06-09T20:43:17.312Z,77.30
2018-06-09T20:45:45.838Z,76.70
2018-06-09T20:48:14.395Z,76.40
2018-06-09T20:50:42.834Z,76.80
2018-06-09T20:53:11.235Z,76.90
2018-06-09T20:55:39.858Z,77.00
2018-06-09T20:58:08.433Z,77.40
2018-06-09T21:00:36.822Z,78.50
2018-06-09T21:03:05.295Z,78.50
2018-06-09T21:05:33.846Z,79.00
2018-06-09T21:08:02.357Z,78.80
2018-06-09T21:10:30.872Z,80.50
2018-06-09T21:12:59.383Z,79.60
2018-06-09T21:15:27.895Z,79.50
2018-06-09T21:17:56.369Z,79.30
2018-06-09T21:20:24.868Z,79.20
2018-06-09T21:22:53.412Z,80.20
2018-06-09T21:25:28.359Z,79.80
2018-06-09T21:28:02.218Z,79.30
2018-06-09T21:30:35.928Z,79.10
2018-06-09T21:33:09.788Z,79.40
2018-06-09T21:35:55.762Z,79.20
2018-06-09T21:38:27.144Z,79.00
2018-06-09T21:41:01.047Z,79.70
2018-06-09T21:43:34.024Z,79.70
2018-06-09T21:46:05.585Z,80.10
2018-06-09T21:48:34.342Z,79.90
2018-06-09T21:51:02.743Z,80.70
2018-06-09T21:53:31.230Z,80.60
2018-06-09T21:55:59.677Z,80.10
2018-06-09T21:58:28.066Z,80.60
2018-06-09T22:00:56.566Z,80.60
2018-06-09T22:03:25.019Z,81.10
2018-06-09T22:05:53.478Z,81.20
2018-06-09T22:08:21.855Z,81.60
2018-06-09T22:10:50.265Z,81.60
2018-06-09T22:13:18.730Z,81.50
2018-06-09T22:15:47.217Z,81.80
2018-06-09T22:18:15.628Z,82.30
2018-06-09T22:20:44.270Z,82.20
2018-06-09T22:23:12.735Z,82.10
2018-06-09T22:25:46.448Z,82.30
2018-06-09T22:28:14.958Z,82.30
2018-06-09T22:33:11.495Z,82.50
2018-06-09T22:35:40.070Z,82.70
2018-06-09T22:38:08.481Z,82.50
2018-06-09T22:40:37.033Z,82.70
2018-06-09T22:43:05.505Z,82.80
2018-06-09T22:45:33.902Z,83.10
2018-06-09T22:48:02.428Z,83.40
2018-06-09T22:50:30.910Z,83.50
2018-06-09T22:52:59.281Z,83.30
2018-06-09T22:55:27.660Z,83.40
2018-06-09T22:57:56.235Z,83.50
2018-06-09T23:00:30.662Z,83.70
2018-06-09T23:02:59.249Z,83.70
2018-06-09T23:05:27.725Z,83.70
2018-06-09T23:07:56.145Z,83.70
2018-06-09T23:10:24.549Z,84.00
2018-06-09T23:12:53.038Z,83.90
2018-06-09T23:15:21.478Z,84.00
2018-06-09T23:17:49.933Z,84.10
2018-06-09T23:20:18.338Z,84.20
2018-06-09T23:22:46.827Z,84.30
2018-06-09T23:25:15.385Z,84.60
2018-06-09T23:27:43.969Z,85.20
2018-06-09T23:30:12.513Z,84.20
2018-06-09T23:32:41.312Z,84.00
2018-06-09T23:35:10.138Z,84.00
2018-06-09T23:37:38.541Z,83.90
2018-06-09T23:40:07.169Z,83.90
2018-06-09T23:42:35.614Z,83.90
2018-06-09T23:45:04.174Z,83.40
2018-06-09T23:47:32.766Z,82.70
2018-06-09T23:50:01.195Z,82.50
2018-06-09T23:52:29.786Z,82.60
2018-06-09T23:54:58.279Z,82.60
2018-06-09T23:57:26.650Z,82.70
2018-06-09T23:59:55.154Z,82.50
